sensor_id;sensor_type;location;lat;lon;timestamp;pressure;altitude;pressure_sealevel;temperature;humidity
76378;BME280;65200;49.500;8.654;2023-04-03T00:01:43;101505.56;;;2.00;77.40
76378;BME280;65200;49.500;8.654;2023-04-03T00:04:10;101516.38;;;2.10;76.87
76378;BME280;65200;49.500;8.654;2023-04-03T00:06:38;101518.81;;;1.88;79.70
76378;BME280;65200;49.500;8.654;2023-04-03T00:09:04;101517.13;;;1.87;80.71
76378;BME280;65200;49.500;8.654;2023-04-03T00:11:31;101510.38;;;1.70;78.89
76378;BME280;65200;49.500;8.654;2023-04-03T00:13:57;101515.75;;;1.69;79.44
76378;BME280;65200;49.500;8.654;2023-04-03T00:16:24;101516.38;;;1.60;79.79
76378;BME280;65200;49.500;8.654;2023-04-03T00:18:50;101515.22;;;1.64;79.39
76378;BME280;65200;49.500;8.654;2023-04-03T00:21:16;101522.53;;;1.60;79.79
76378;BME280;65200;49.500;8.654;2023-04-03T00:23:45;101520.53;;;1.51;79.34
76378;BME280;65200;49.500;8.654;2023-04-03T00:26:11;101520.09;;;1.45;80.04
76378;BME280;65200;49.500;8.654;2023-04-03T00:28:38;101518.16;;;1.21;80.16
76378;BME280;65200;49.500;8.654;2023-04-03T00:31:04;101529.38;;;1.37;80.21
76378;BME280;65200;49.500;8.654;2023-04-03T00:33:30;101526.50;;;1.28;79.48
76378;BME280;65200;49.500;8.654;2023-04-03T00:35:57;101524.41;;;1.33;79.99
76378;BME280;65200;49.500;8.654;2023-04-03T00:38:23;101529.16;;;1.40;80.18
76378;BME280;65200;49.500;8.654;2023-04-03T00:40:51;101518.59;;;1.40;79.52
76378;BME280;65200;49.500;8.654;2023-04-03T00:43:19;101532.31;;;1.33;79.90
76378;BME280;65200;49.500;8.654;2023-04-03T00:45:46;101530.78;;;1.04;83.00
76378;BME280;65200;49.500;8.654;2023-04-03T00:48:16;101531.03;;;1.26;80.52
76378;BME280;65200;49.500;8.654;2023-04-03T00:50:43;101531.66;;;1.17;80.87
76378;BME280;65200;49.500;8.654;2023-04-03T00:53:13;101533.41;;;1.04;81.82
76378;BME280;65200;49.500;8.654;2023-04-03T00:55:41;101530.25;;;1.11;80.44
76378;BME280;65200;49.500;8.654;2023-04-03T00:58:10;101530.22;;;0.72;84.29
76378;BME280;65200;49.500;8.654;2023-04-03T01:00:39;101535.09;;;0.78;82.33
76378;BME280;65200;49.500;8.654;2023-04-03T01:03:07;101532.88;;;0.99;81.07
76378;BME280;65200;49.500;8.654;2023-04-03T01:05:34;101533.47;;;0.90;82.13
76378;BME280;65200;49.500;8.654;2023-04-03T01:08:01;101530.28;;;0.85;82.27
76378;BME280;65200;49.500;8.654;2023-04-03T01:10:28;101533.16;;;0.68;82.74
76378;BME280;65200;49.500;8.654;2023-04-03T01:12:54;101528.75;;;0.68;83.55
76378;BME280;65200;49.500;8.654;2023-04-03T01:15:23;101529.56;;;0.83;83.43
76378;BME280;65200;49.500;8.654;2023-04-03T01:17:53;101525.66;;;0.88;81.64
76378;BME280;65200;49.500;8.654;2023-04-03T01:20:56;101530.69;;;0.79;82.82
76378;BME280;65200;49.500;8.654;2023-04-03T01:23:41;101521.97;;;0.91;82.09
76378;BME280;65200;49.500;8.654;2023-04-03T01:26:10;101518.69;;;0.87;81.10
76378;BME280;65200;49.500;8.654;2023-04-03T01:28:37;101529.09;;;0.76;81.68
76378;BME280;65200;49.500;8.654;2023-04-03T01:31:12;101528.25;;;0.76;81.04
76378;BME280;65200;49.500;8.654;2023-04-03T01:33:43;101529.19;;;0.75;81.39
76378;BME280;65200;49.500;8.654;2023-04-03T01:36:14;101525.94;;;0.57;82.09
76378;BME280;65200;49.500;8.654;2023-04-03T01:38:41;101526.50;;;0.62;82.21
76378;BME280;65200;49.500;8.654;2023-04-03T01:41:07;101518.09;;;0.70;81.20
76378;BME280;65200;49.500;8.654;2023-04-03T01:43:33;101522.97;;;0.76;81.25
76378;BME280;65200;49.500;8.654;2023-04-03T01:46:00;101531.63;;;0.78;80.82
76378;BME280;65200;49.500;8.654;2023-04-03T01:48:26;101533.72;;;0.73;82.61
76378;BME280;65200;49.500;8.654;2023-04-03T01:50:54;101528.56;;;0.71;82.98
76378;BME280;65200;49.500;8.654;2023-04-03T01:53:21;101537.59;;;0.67;82.29
76378;BME280;65200;49.500;8.654;2023-04-03T01:55:48;101538.91;;;0.60;82.14
76378;BME280;65200;49.500;8.654;2023-04-03T01:58:14;101547.22;;;0.54;82.85
76378;BME280;65200;49.500;8.654;2023-04-03T02:00:40;101544.44;;;0.43;83.19
76378;BME280;65200;49.500;8.654;2023-04-03T02:03:07;101544.34;;;0.45;83.17
76378;BME280;65200;49.500;8.654;2023-04-03T02:05:33;101552.53;;;0.40;82.79
76378;BME280;65200;49.500;8.654;2023-04-03T02:08:01;101543.25;;;0.21;83.52
76378;BME280;65200;49.500;8.654;2023-04-03T02:10:27;101548.28;;;0.38;84.00
76378;BME280;65200;49.500;8.654;2023-04-03T02:12:54;101548.50;;;0.35;82.92
76378;BME280;65200;49.500;8.654;2023-04-03T02:15:20;101546.31;;;0.41;83.40
76378;BME280;65200;49.500;8.654;2023-04-03T02:17:47;101548.53;;;0.21;82.76
76378;BME280;65200;49.500;8.654;2023-04-03T02:20:13;101544.84;;;0.37;83.55
76378;BME280;65200;49.500;8.654;2023-04-03T02:22:39;101545.28;;;0.30;82.35
76378;BME280;65200;49.500;8.654;2023-04-03T02:25:08;101544.38;;;0.31;83.24
76378;BME280;65200;49.500;8.654;2023-04-03T02:27:35;101544.19;;;0.06;84.44
76378;BME280;65200;49.500;8.654;2023-04-03T02:30:02;101548.06;;;-0.14;84.45
76378;BME280;65200;49.500;8.654;2023-04-03T02:32:29;101540.44;;;-0.19;84.97
76378;BME280;65200;49.500;8.654;2023-04-03T02:34:55;101540.91;;;0.02;85.27
76378;BME280;65200;49.500;8.654;2023-04-03T02:37:22;101546.28;;;0.15;83.85
76378;BME280;65200;49.500;8.654;2023-04-03T02:39:48;101539.19;;;0.15;84.05
76378;BME280;65200;49.500;8.654;2023-04-03T02:42:16;101542.31;;;0.08;83.08
76378;BME280;65200;49.500;8.654;2023-04-03T02:44:42;101539.28;;;0.14;84.05
76378;BME280;65200;49.500;8.654;2023-04-03T02:47:09;101534.91;;;0.00;84.39
76378;BME280;65200;49.500;8.654;2023-04-03T02:49:36;101539.03;;;0.04;83.99
76378;BME280;65200;49.500;8.654;2023-04-03T02:52:02;101533.84;;;0.03;84.39
76378;BME280;65200;49.500;8.654;2023-04-03T02:54:29;101536.84;;;-0.18;85.68
76378;BME280;65200;49.500;8.654;2023-04-03T02:56:56;101539.13;;;0.03;84.13
76378;BME280;65200;49.500;8.654;2023-04-03T02:59:24;101540.91;;;0.16;83.37
76378;BME280;65200;49.500;8.654;2023-04-03T03:01:50;101534.50;;;0.20;82.61
76378;BME280;65200;49.500;8.654;2023-04-03T03:04:17;101536.38;;;0.18;83.15
76378;BME280;65200;49.500;8.654;2023-04-03T03:06:43;101530.13;;;0.33;81.95
76378;BME280;65200;49.500;8.654;2023-04-03T03:09:10;101529.06;;;0.50;81.13
76378;BME280;65200;49.500;8.654;2023-04-03T03:11:38;101535.78;;;0.41;81.40
76378;BME280;65200;49.500;8.654;2023-04-03T03:14:04;101527.38;;;0.08;82.61
76378;BME280;65200;49.500;8.654;2023-04-03T03:16:32;101526.28;;;0.25;82.92
76378;BME280;65200;49.500;8.654;2023-04-03T03:18:59;101531.13;;;0.04;84.38
76378;BME280;65200;49.500;8.654;2023-04-03T03:21:25;101533.28;;;-0.17;84.35
76378;BME280;65200;49.500;8.654;2023-04-03T03:23:52;101539.13;;;0.03;84.20
76378;BME280;65200;49.500;8.654;2023-04-03T03:26:18;101534.22;;;-0.04;83.83
76378;BME280;65200;49.500;8.654;2023-04-03T03:28:45;101540.44;;;-0.05;84.24
76378;BME280;65200;49.500;8.654;2023-04-03T03:31:11;101546.94;;;0.04;83.73
76378;BME280;65200;49.500;8.654;2023-04-03T03:33:39;101550.41;;;-0.10;83.23
76378;BME280;65200;49.500;8.654;2023-04-03T03:36:06;101551.25;;;-0.23;85.15
76378;BME280;65200;49.500;8.654;2023-04-03T03:38:32;101545.94;;;-0.37;84.87
76378;BME280;65200;49.500;8.654;2023-04-03T03:40:59;101545.84;;;-0.36;84.98
76378;BME280;65200;49.500;8.654;2023-04-03T03:43:25;101540.44;;;-0.19;84.47
76378;BME280;65200;49.500;8.654;2023-04-03T03:45:52;101537.22;;;-0.24;84.59
76378;BME280;65200;49.500;8.654;2023-04-03T03:48:20;101542.88;;;-0.16;84.42
76378;BME280;65200;49.500;8.654;2023-04-03T03:50:49;101549.09;;;-0.17;83.72
76378;BME280;65200;49.500;8.654;2023-04-03T03:53:15;101545.81;;;-0.20;84.50
76378;BME280;65200;49.500;8.654;2023-04-03T03:55:42;101542.22;;;-0.19;83.67
76378;BME280;65200;49.500;8.654;2023-04-03T03:58:08;101536.50;;;-0.55;85.08
76378;BME280;65200;49.500;8.654;2023-04-03T04:00:35;101547.28;;;-0.30;84.94
76378;BME280;65200;49.500;8.654;2023-04-03T04:03:01;101550.59;;;-0.27;84.00
76378;BME280;65200;49.500;8.654;2023-04-03T04:05:28;101554.72;;;-0.23;83.83
76378;BME280;65200;49.500;8.654;2023-04-03T04:07:55;101548.72;;;-0.11;83.15
76378;BME280;65200;49.500;8.654;2023-04-03T04:10:22;101552.50;;;-0.01;83.86
76378;BME280;65200;49.500;8.654;2023-04-03T04:12:48;101552.84;;;0.08;82.49
76378;BME280;65200;49.500;8.654;2023-04-03T04:15:16;101555.66;;;0.19;82.77
76378;BME280;65200;49.500;8.654;2023-04-03T04:17:43;101552.38;;;0.15;81.61
76378;BME280;65200;49.500;8.654;2023-04-03T04:20:10;101550.88;;;-0.03;82.43
76378;BME280;65200;49.500;8.654;2023-04-03T04:22:36;101554.72;;;0.06;82.83
76378;BME280;65200;49.500;8.654;2023-04-03T04:25:05;101548.34;;;-0.05;83.30
76378;BME280;65200;49.500;8.654;2023-04-03T04:27:32;101550.41;;;-0.10;83.56
76378;BME280;65200;49.500;8.654;2023-04-03T04:29:58;101550.41;;;-0.24;83.93
76378;BME280;65200;49.500;8.654;2023-04-03T04:32:26;101552.44;;;-0.43;85.22
76378;BME280;65200;49.500;8.654;2023-04-03T04:34:52;101542.34;;;-0.64;85.85
76378;BME280;65200;49.500;8.654;2023-04-03T04:37:18;101545.47;;;-0.58;85.74
76378;BME280;65200;49.500;8.654;2023-04-03T04:39:45;101546.25;;;-0.28;84.53
76378;BME280;65200;49.500;8.654;2023-04-03T04:42:13;101545.78;;;-0.06;83.19
76378;BME280;65200;49.500;8.654;2023-04-03T04:44:40;101545.81;;;0.08;82.64
76378;BME280;65200;49.500;8.654;2023-04-03T04:47:06;101545.88;;;0.07;82.94
76378;BME280;65200;49.500;8.654;2023-04-03T04:49:33;101547.41;;;0.11;82.44
76378;BME280;65200;49.500;8.654;2023-04-03T04:51:59;101542.88;;;0.13;81.82
76378;BME280;65200;49.500;8.654;2023-04-03T04:54:26;101542.59;;;0.17;82.54
76378;BME280;65200;49.500;8.654;2023-04-03T04:56:52;101545.53;;;0.13;82.83
76378;BME280;65200;49.500;8.654;2023-04-03T04:59:20;101554.00;;;0.18;82.30
76378;BME280;65200;49.500;8.654;2023-04-03T05:01:47;101561.06;;;0.03;82.96
76378;BME280;65200;49.500;8.654;2023-04-03T05:04:13;101557.84;;;0.12;83.63
76378;BME280;65200;49.500;8.654;2023-04-03T05:06:40;101550.31;;;0.20;82.23
76378;BME280;65200;49.500;8.654;2023-04-03T05:09:06;101555.00;;;0.29;82.37
76378;BME280;65200;49.500;8.654;2023-04-03T05:11:34;101553.75;;;0.35;82.38
76378;BME280;65200;49.500;8.654;2023-04-03T05:14:00;101557.16;;;0.37;81.34
76378;BME280;65200;49.500;8.654;2023-04-03T05:16:28;101563.38;;;0.36;81.79
76378;BME280;65200;49.500;8.654;2023-04-03T05:18:55;101561.22;;;0.28;82.17
76378;BME280;65200;49.500;8.654;2023-04-03T05:21:21;101571.84;;;0.41;82.09
76378;BME280;65200;49.500;8.654;2023-04-03T05:23:51;101570.63;;;0.32;81.41
76378;BME280;65200;49.500;8.654;2023-04-03T05:26:18;101567.16;;;0.32;82.05
76378;BME280;65200;49.500;8.654;2023-04-03T05:28:46;101574.03;;;0.34;82.20
76378;BME280;65200;49.500;8.654;2023-04-03T05:31:12;101566.59;;;0.41;82.27
76378;BME280;65200;49.500;8.654;2023-04-03T05:33:40;101560.91;;;0.47;81.03
76378;BME280;65200;49.500;8.654;2023-04-03T05:36:07;101565.78;;;0.53;81.56
76378;BME280;65200;49.500;8.654;2023-04-03T05:38:34;101566.56;;;0.55;81.56
76378;BME280;65200;49.500;8.654;2023-04-03T05:41:00;101576.41;;;0.65;80.79
76378;BME280;65200;49.500;8.654;2023-04-03T05:43:27;101567.38;;;0.69;80.82
76378;BME280;65200;49.500;8.654;2023-04-03T05:45:53;101571.69;;;0.70;80.94
76378;BME280;65200;49.500;8.654;2023-04-03T05:48:20;101572.75;;;0.68;80.65
76378;BME280;65200;49.500;8.654;2023-04-03T05:50:48;101574.41;;;0.69;80.30
76378;BME280;65200;49.500;8.654;2023-04-03T05:53:19;101578.94;;;0.67;81.30
76378;BME280;65200;49.500;8.654;2023-04-03T05:55:47;101582.03;;;0.73;81.18
76378;BME280;65200;49.500;8.654;2023-04-03T05:58:13;101583.91;;;0.85;81.14
76378;BME280;65200;49.500;8.654;2023-04-03T06:00:40;101579.41;;;1.00;80.69
76378;BME280;65200;49.500;8.654;2023-04-03T06:03:06;101583.41;;;1.19;79.53
76378;BME280;65200;49.500;8.654;2023-04-03T06:05:33;101582.16;;;1.25;80.13
76378;BME280;65200;49.500;8.654;2023-04-03T06:08:01;101588.72;;;1.32;78.60
76378;BME280;65200;49.500;8.654;2023-04-03T06:10:28;101583.06;;;1.51;78.66
76378;BME280;65200;49.500;8.654;2023-04-03T06:12:54;101581.06;;;1.67;79.07
76378;BME280;65200;49.500;8.654;2023-04-03T06:15:21;101584.91;;;1.75;78.83
76378;BME280;65200;49.500;8.654;2023-04-03T06:17:48;101587.53;;;1.88;78.84
76378;BME280;65200;49.500;8.654;2023-04-03T06:20:16;101587.84;;;2.08;77.96
76378;BME280;65200;49.500;8.654;2023-04-03T06:22:42;101587.91;;;2.44;76.43
76378;BME280;65200;49.500;8.654;2023-04-03T06:25:10;101593.53;;;2.40;76.45
76378;BME280;65200;49.500;8.654;2023-04-03T06:27:37;101599.56;;;2.29;77.21
76378;BME280;65200;49.500;8.654;2023-04-03T06:30:05;101590.06;;;2.27;77.11
76378;BME280;65200;49.500;8.654;2023-04-03T06:32:32;101597.25;;;2.86;75.07
76378;BME280;65200;49.500;8.654;2023-04-03T06:34:59;101598.19;;;3.56;73.55
76378;BME280;65200;49.500;8.654;2023-04-03T06:37:25;101595.31;;;4.60;69.46
76378;BME280;65200;49.500;8.654;2023-04-03T06:39:54;101594.56;;;5.54;66.08
76378;BME280;65200;49.500;8.654;2023-04-03T06:42:22;101601.06;;;6.23;64.24
76378;BME280;65200;49.500;8.654;2023-04-03T06:44:48;101598.44;;;6.72;63.86
76378;BME280;65200;49.500;8.654;2023-04-03T06:47:16;101600.47;;;6.89;62.49
76378;BME280;65200;49.500;8.654;2023-04-03T06:49:43;101593.94;;;6.63;61.72
76378;BME280;65200;49.500;8.654;2023-04-03T06:52:10;101612.75;;;6.41;63.35
76378;BME280;65200;49.500;8.654;2023-04-03T06:54:37;101609.03;;;5.82;64.81
76378;BME280;65200;49.500;8.654;2023-04-03T06:57:04;101607.31;;;5.39;66.05
76378;BME280;65200;49.500;8.654;2023-04-03T06:59:32;101618.22;;;6.39;64.09
76378;BME280;65200;49.500;8.654;2023-04-03T07:01:59;101600.53;;;6.68;63.48
76378;BME280;65200;49.500;8.654;2023-04-03T07:04:25;101608.19;;;6.82;61.62
76378;BME280;65200;49.500;8.654;2023-04-03T07:06:52;101611.31;;;7.07;61.52
76378;BME280;65200;49.500;8.654;2023-04-03T07:09:19;101618.38;;;7.36;60.96
76378;BME280;65200;49.500;8.654;2023-04-03T07:11:46;101617.09;;;7.21;62.40
76378;BME280;65200;49.500;8.654;2023-04-03T07:14:12;101620.88;;;7.76;61.64
76378;BME280;65200;49.500;8.654;2023-04-03T07:16:40;101627.91;;;7.39;58.30
76378;BME280;65200;49.500;8.654;2023-04-03T07:19:06;101632.88;;;6.24;63.13
76378;BME280;65200;49.500;8.654;2023-04-03T07:21:33;101636.75;;;6.20;62.85
76378;BME280;65200;49.500;8.654;2023-04-03T07:24:00;101635.25;;;6.57;62.39
76378;BME280;65200;49.500;8.654;2023-04-03T07:26:27;101629.63;;;6.21;64.11
76378;BME280;65200;49.500;8.654;2023-04-03T07:28:53;101642.78;;;6.43;62.35
76378;BME280;65200;49.500;8.654;2023-04-03T07:31:20;101634.91;;;6.11;63.00
76378;BME280;65200;49.500;8.654;2023-04-03T07:33:48;101632.09;;;5.92;63.22
76378;BME280;65200;49.500;8.654;2023-04-03T07:36:17;101640.16;;;6.52;61.35
76378;BME280;65200;49.500;8.654;2023-04-03T07:38:43;101641.22;;;6.70;63.82
76378;BME280;65200;49.500;8.654;2023-04-03T07:41:12;101647.13;;;7.23;60.46
76378;BME280;65200;49.500;8.654;2023-04-03T07:43:40;101648.28;;;7.68;58.35
76378;BME280;65200;49.500;8.654;2023-04-03T07:46:07;101641.56;;;7.83;59.91
76378;BME280;65200;49.500;8.654;2023-04-03T07:48:34;101638.16;;;7.43;56.65
76378;BME280;65200;49.500;8.654;2023-04-03T07:51:03;101645.91;;;7.84;57.04
76378;BME280;65200;49.500;8.654;2023-04-03T07:53:30;101646.41;;;8.16;56.83
76378;BME280;65200;49.500;8.654;2023-04-03T07:55:58;101644.19;;;8.02;55.09
76378;BME280;65200;49.500;8.654;2023-04-03T07:58:24;101643.34;;;8.21;55.86
76378;BME280;65200;49.500;8.654;2023-04-03T08:00:52;101637.00;;;8.31;55.85
76378;BME280;65200;49.500;8.654;2023-04-03T08:03:18;101647.28;;;8.26;57.22
76378;BME280;65200;49.500;8.654;2023-04-03T08:05:47;101643.75;;;8.16;57.67
76378;BME280;65200;49.500;8.654;2023-04-03T08:08:17;101647.28;;;8.26;54.18
76378;BME280;65200;49.500;8.654;2023-04-03T08:10:48;101646.88;;;7.93;54.70
76378;BME280;65200;49.500;8.654;2023-04-03T08:13:15;101656.28;;;7.78;55.22
76378;BME280;65200;49.500;8.654;2023-04-03T08:15:41;101648.72;;;7.64;56.60
76378;BME280;65200;49.500;8.654;2023-04-03T08:18:08;101646.03;;;7.73;56.23
76378;BME280;65200;49.500;8.654;2023-04-03T08:20:35;101648.28;;;7.68;56.99
76378;BME280;65200;49.500;8.654;2023-04-03T08:23:01;101637.75;;;7.38;56.57
76378;BME280;65200;49.500;8.654;2023-04-03T08:25:30;101643.50;;;7.43;60.47
76378;BME280;65200;49.500;8.654;2023-04-03T08:27:57;101643.91;;;7.48;59.77
76378;BME280;65200;49.500;8.654;2023-04-03T08:30:24;101644.06;;;7.37;55.90
76378;BME280;65200;49.500;8.654;2023-04-03T08:32:50;101647.28;;;7.31;58.52
76378;BME280;65200;49.500;8.654;2023-04-03T08:35:16;101653.97;;;7.07;56.89
76378;BME280;65200;49.500;8.654;2023-04-03T08:37:45;101633.97;;;6.82;58.21
76378;BME280;65200;49.500;8.654;2023-04-03T08:40:14;101632.50;;;6.68;59.12
76378;BME280;65200;49.500;8.654;2023-04-03T08:42:51;101644.19;;;6.77;57.86
76378;BME280;65200;49.500;8.654;2023-04-03T08:45:25;101643.88;;;7.10;57.92
76378;BME280;65200;49.500;8.654;2023-04-03T08:47:58;101637.47;;;7.32;51.95
76378;BME280;65200;49.500;8.654;2023-04-03T08:50:31;101640.16;;;7.51;55.73
76378;BME280;65200;49.500;8.654;2023-04-03T08:53:01;101638.06;;;7.54;57.49
76378;BME280;65200;49.500;8.654;2023-04-03T08:55:31;101629.63;;;7.40;53.41
76378;BME280;65200;49.500;8.654;2023-04-03T08:58:02;101632.16;;;7.41;54.94
76378;BME280;65200;49.500;8.654;2023-04-03T09:00:37;101634.38;;;7.36;53.16
76378;BME280;65200;49.500;8.654;2023-04-03T09:03:11;101640.28;;;7.59;52.46
76378;BME280;65200;49.500;8.654;2023-04-03T09:05:42;101638.75;;;7.66;52.23
76378;BME280;65200;49.500;8.654;2023-04-03T09:08:18;101627.25;;;7.46;52.83
76378;BME280;65200;49.500;8.654;2023-04-03T09:10:48;101625.28;;;7.58;53.52
76378;BME280;65200;49.500;8.654;2023-04-03T09:13:19;101632.84;;;7.81;52.33
76378;BME280;65200;49.500;8.654;2023-04-03T09:15:49;101634.66;;;7.81;52.89
76378;BME280;65200;49.500;8.654;2023-04-03T09:18:20;101631.16;;;7.80;51.64
76378;BME280;65200;49.500;8.654;2023-04-03T09:20:55;101642.09;;;7.58;50.55
76378;BME280;65200;49.500;8.654;2023-04-03T09:23:27;101633.25;;;7.48;49.69
76378;BME280;65200;49.500;8.654;2023-04-03T09:26:01;101629.31;;;8.09;50.60
76378;BME280;65200;49.500;8.654;2023-04-03T09:28:34;101630.13;;;8.29;50.62
76378;BME280;65200;49.500;8.654;2023-04-03T09:31:03;101628.25;;;8.49;48.30
76378;BME280;65200;49.500;8.654;2023-04-03T09:33:36;101630.97;;;7.15;47.47
76378;BME280;65200;49.500;8.654;2023-04-03T09:36:03;101637.47;;;7.32;50.70
76378;BME280;65200;49.500;8.654;2023-04-03T09:38:30;101635.09;;;7.57;49.55
76378;BME280;65200;49.500;8.654;2023-04-03T09:41:04;101615.84;;;7.44;50.16
76378;BME280;65200;49.500;8.654;2023-04-03T09:43:33;101632.09;;;7.22;48.70
76378;BME280;65200;49.500;8.654;2023-04-03T09:46:29;101629.47;;;7.79;50.05
76378;BME280;65200;49.500;8.654;2023-04-03T09:48:58;101629.56;;;8.25;46.12
76378;BME280;65200;49.500;8.654;2023-04-03T09:51:26;101620.72;;;8.25;48.31
76378;BME280;65200;49.500;8.654;2023-04-03T09:53:53;101627.44;;;8.39;48.80
76378;BME280;65200;49.500;8.654;2023-04-03T09:56:24;101628.41;;;8.38;46.67
76378;BME280;65200;49.500;8.654;2023-04-03T09:59:07;101624.25;;;7.97;49.42
76378;BME280;65200;49.500;8.654;2023-04-03T10:01:35;101625.66;;;7.44;49.16
76378;BME280;65200;49.500;8.654;2023-04-03T10:04:04;101639.16;;;7.33;51.67
76378;BME280;65200;49.500;8.654;2023-04-03T10:06:32;101622.03;;;7.73;48.22
76378;BME280;65200;49.500;8.654;2023-04-03T10:09:02;101614.53;;;8.05;50.48
76378;BME280;65200;49.500;8.654;2023-04-03T10:11:29;101622.28;;;7.32;48.91
76378;BME280;65200;49.500;8.654;2023-04-03T10:13:58;101621.53;;;7.02;51.55
76378;BME280;65200;49.500;8.654;2023-04-03T10:16:31;101622.38;;;6.92;52.06
76378;BME280;65200;49.500;8.654;2023-04-03T10:19:09;101615.63;;;6.98;50.65
76378;BME280;65200;49.500;8.654;2023-04-03T10:21:45;101624.03;;;6.93;51.74
76378;BME280;65200;49.500;8.654;2023-04-03T10:24:18;101613.69;;;7.00;49.94
76378;BME280;65200;49.500;8.654;2023-04-03T10:26:53;101605.13;;;7.06;52.20
76378;BME280;65200;49.500;8.654;2023-04-03T10:29:38;101615.28;;;7.31;51.88
76378;BME280;65200;49.500;8.654;2023-04-03T10:32:17;101597.72;;;7.19;50.59
76378;BME280;65200;49.500;8.654;2023-04-03T10:34:54;101607.28;;;7.22;50.10
76378;BME280;65200;49.500;8.654;2023-04-03T10:37:30;101607.00;;;7.53;49.83
76378;BME280;65200;49.500;8.654;2023-04-03T10:40:08;101609.31;;;8.32;50.30
76378;BME280;65200;49.500;8.654;2023-04-03T10:42:46;101602.09;;;8.43;48.64
76378;BME280;65200;49.500;8.654;2023-04-03T10:45:21;101606.88;;;8.49;50.43
76378;BME280;65200;49.500;8.654;2023-04-03T10:47:59;101608.03;;;8.37;48.27
76378;BME280;65200;49.500;8.654;2023-04-03T10:50:36;101599.75;;;8.20;48.89
76378;BME280;65200;49.500;8.654;2023-04-03T10:53:10;101607.09;;;8.65;45.23
76378;BME280;65200;49.500;8.654;2023-04-03T10:55:41;101611.94;;;9.76;45.06
76378;BME280;65200;49.500;8.654;2023-04-03T10:58:14;101607.16;;;10.05;41.91
76378;BME280;65200;49.500;8.654;2023-04-03T11:00:47;101611.34;;;10.25;39.60
76378;BME280;65200;49.500;8.654;2023-04-03T11:03:17;101609.16;;;9.86;40.99
76378;BME280;65200;49.500;8.654;2023-04-03T11:05:52;101614.94;;;10.34;43.19
76378;BME280;65200;49.500;8.654;2023-04-03T11:08:27;101599.78;;;10.50;40.43
76378;BME280;65200;49.500;8.654;2023-04-03T11:10:57;101610.97;;;10.20;41.20
76378;BME280;65200;49.500;8.654;2023-04-03T11:13:30;101606.44;;;9.95;40.41
76378;BME280;65200;49.500;8.654;2023-04-03T11:16:00;101598.75;;;10.00;39.40
76378;BME280;65200;49.500;8.654;2023-04-03T11:18:33;101598.44;;;9.42;42.92
76378;BME280;65200;49.500;8.654;2023-04-03T11:21:05;101601.19;;;9.50;43.97
76378;BME280;65200;49.500;8.654;2023-04-03T11:23:34;101601.63;;;9.81;41.47
76378;BME280;65200;49.500;8.654;2023-04-03T11:26:09;101595.69;;;9.52;42.43
76378;BME280;65200;49.500;8.654;2023-04-03T11:28:36;101601.94;;;9.60;41.19
76378;BME280;65200;49.500;8.654;2023-04-03T11:31:25;101605.59;;;9.42;42.06
76378;BME280;65200;49.500;8.654;2023-04-03T11:34:05;101604.88;;;9.05;43.01
76378;BME280;65200;49.500;8.654;2023-04-03T11:36:39;101599.97;;;8.83;41.21
76378;BME280;65200;49.500;8.654;2023-04-03T11:39:13;101600.44;;;8.96;42.96
76378;BME280;65200;49.500;8.654;2023-04-03T11:41:41;101597.41;;;9.26;47.75
76378;BME280;65200;49.500;8.654;2023-04-03T11:44:34;101594.66;;;9.00;45.78
76378;BME280;65200;49.500;8.654;2023-04-03T11:47:04;101611.16;;;8.96;45.04
76378;BME280;65200;49.500;8.654;2023-04-03T11:50:06;101599.94;;;8.56;46.04
76378;BME280;65200;49.500;8.654;2023-04-03T11:52:59;101585.44;;;8.58;43.27
76378;BME280;65200;49.500;8.654;2023-04-03T11:55:44;101577.91;;;8.44;42.78
76378;BME280;65200;49.500;8.654;2023-04-03T11:58:13;101586.28;;;8.86;42.82
76378;BME280;65200;49.500;8.654;2023-04-03T12:00:57;101583.88;;;9.10;44.21
76378;BME280;65200;49.500;8.654;2023-04-03T12:09:56;101571.91;;;9.14;43.44
76378;BME280;65200;49.500;8.654;2023-04-03T12:12:29;101570.22;;;9.13;43.34
76378;BME280;65200;49.500;8.654;2023-04-03T12:15:12;101562.56;;;9.70;40.07
76378;BME280;65200;49.500;8.654;2023-04-03T12:17:43;101563.84;;;10.35;37.71
76378;BME280;65200;49.500;8.654;2023-04-03T12:23:23;101562.06;;;9.49;43.77
76378;BME280;65200;49.500;8.654;2023-04-03T12:25:51;101561.03;;;9.50;43.25
76378;BME280;65200;49.500;8.654;2023-04-03T12:28:26;101559.53;;;9.48;44.37
76378;BME280;65200;49.500;8.654;2023-04-03T12:30:53;101564.94;;;9.21;47.18
76378;BME280;65200;49.500;8.654;2023-04-03T12:33:29;101558.47;;;8.79;47.58
76378;BME280;65200;49.500;8.654;2023-04-03T12:36:06;101563.53;;;8.55;48.14
76378;BME280;65200;49.500;8.654;2023-04-03T12:38:44;101562.44;;;8.48;50.95
76378;BME280;65200;49.500;8.654;2023-04-03T12:41:24;101550.63;;;8.50;48.89
76378;BME280;65200;49.500;8.654;2023-04-03T12:44:04;101549.09;;;8.65;43.38
76378;BME280;65200;49.500;8.654;2023-04-03T12:46:37;101554.03;;;9.49;41.97
76378;BME280;65200;49.500;8.654;2023-04-03T12:49:20;101555.41;;;9.18;43.86
76378;BME280;65200;49.500;8.654;2023-04-03T12:51:53;101547.16;;;8.85;44.55
76378;BME280;65200;49.500;8.654;2023-04-03T12:54:22;101553.94;;;8.62;46.12
76378;BME280;65200;49.500;8.654;2023-04-03T12:57:08;101545.53;;;8.57;42.60
76378;BME280;65200;49.500;8.654;2023-04-03T12:59:35;101545.53;;;8.57;41.22
76378;BME280;65200;49.500;8.654;2023-04-03T13:02:15;101545.47;;;8.66;42.52
76378;BME280;65200;49.500;8.654;2023-04-03T13:04:44;101542.94;;;9.27;41.01
76378;BME280;65200;49.500;8.654;2023-04-03T13:07:20;101535.88;;;10.71;40.45
76378;BME280;65200;49.500;8.654;2023-04-03T13:09:55;101526.94;;;11.37;41.70
76378;BME280;65200;49.500;8.654;2023-04-03T13:12:23;101524.53;;;11.01;39.43
76378;BME280;65200;49.500;8.654;2023-04-03T13:14:55;101520.94;;;10.77;38.62
76378;BME280;65200;49.500;8.654;2023-04-03T13:17:23;101531.13;;;10.65;38.63
76378;BME280;65200;49.500;8.654;2023-04-03T13:19:50;101523.69;;;10.93;38.77